Memphis, Tennessee
Current Conditions -  °F | °C
As of 10:54 AM on Thursday 23 Oct 2014 (Local Time) from KMEM Reporting Station
Broken Clouds Broken Clouds  
Wind Chill: 16°   Ceiling: 25000
Heat Index: 16°   Visibility: 10mi
Dew Point:   Wind: 3mph
Humidity: 55%   Direction: NA
Pressure: 30.22"   Gusts: NA
Location:  35.15°N, 90.05°W
Report Text: KMEM 231554Z VRB03KT 10SM FEW150 BKN250 16/07 A3022 RMK AO2 SLP231 T01560067
Loading
Personal Weather Stations






























Interactive Weather Map
Tropical Storm Tracking
New forecast layout! Learn more

10-Day Weather Forecast

Advertisements
Track Severe Weather on mobile